createdAt,value
2019-05-09T00:02:04.713Z,30.67
2019-05-09T00:05:09.491Z,27.47
2019-05-09T00:08:13.977Z,18.20
2019-05-09T00:11:17.882Z,25.07
2019-05-09T00:14:23.851Z,20.10
2019-05-09T00:17:27.008Z,25.30
2019-05-09T00:20:37.924Z,28.97
2019-05-09T00:23:43.670Z,24.93
2019-05-09T00:26:47.449Z,27.43
2019-05-09T00:29:53.191Z,28.47
2019-05-09T00:32:57.026Z,23.30
2019-05-09T00:36:00.725Z,23.63
2019-05-09T00:39:05.462Z,27.10
2019-05-09T00:42:09.171Z,25.20
2019-05-09T00:45:23.869Z,26.87
2019-05-09T00:48:33.814Z,27.37
2019-05-09T00:51:37.620Z,24.10
2019-05-09T00:54:43.672Z,31.50
2019-05-09T00:57:46.749Z,29.23
2019-05-09T01:00:50.440Z,25.10
2019-05-09T01:03:54.215Z,17.37
2019-05-09T01:06:57.918Z,27.17
2019-05-09T01:10:04.065Z,22.57
2019-05-09T01:13:07.042Z,28.10
2019-05-09T01:16:10.740Z,26.53
2019-05-09T01:19:14.749Z,27.33
2019-05-09T01:22:18.516Z,24.50
2019-05-09T01:25:23.994Z,22.77
2019-05-09T01:28:27.884Z,20.13
2019-05-09T01:31:33.301Z,23.57
2019-05-09T01:34:37.542Z,16.03
2019-05-09T01:37:43.307Z,15.40
2019-05-09T01:40:47.033Z,15.37
2019-05-09T01:43:50.732Z,14.23
2019-05-09T01:46:54.940Z,13.60
2019-05-09T01:49:58.640Z,16.87
2019-05-09T01:53:04.126Z,14.33
2019-05-09T01:56:07.871Z,11.07
2019-05-09T01:59:13.530Z,13.10
2019-05-09T02:02:17.277Z,15.60
2019-05-09T02:05:21.047Z,10.97
2019-05-09T02:08:24.825Z,10.67
2019-05-09T02:11:41.675Z,13.97
2019-05-09T02:14:40.642Z,10.33
2019-05-09T02:18:01.135Z,10.17
2019-05-09T02:20:57.230Z,10.67
2019-05-09T02:24:03.053Z,8.27
2019-05-09T02:27:06.330Z,10.53
2019-05-09T02:30:14.703Z,8.67
2019-05-09T02:33:35.538Z,11.97
2019-05-09T02:36:39.227Z,9.37
2019-05-09T02:39:42.908Z,8.50
2019-05-09T02:42:49.002Z,10.57
2019-05-09T02:46:14.808Z,9.77
2019-05-09T02:49:19.271Z,9.00
2019-05-09T02:52:23.224Z,10.83
2019-05-09T02:55:28.862Z,10.53
2019-05-09T02:58:38.842Z,10.77
2019-05-09T03:01:59.405Z,10.87
2019-05-09T03:05:03.094Z,11.63
2019-05-09T03:08:09.063Z,16.30
2019-05-09T03:11:12.297Z,11.73
2019-05-09T03:14:19.343Z,10.77
2019-05-09T03:17:21.662Z,13.20
2019-05-09T03:20:49.367Z,13.10
2019-05-09T03:23:53.218Z,17.07
2019-05-09T03:27:01.458Z,12.50
2019-05-09T03:30:11.471Z,14.10
2019-05-09T03:33:12.585Z,16.67
2019-05-09T03:36:18.161Z,13.73
2019-05-09T03:39:21.771Z,16.13
2019-05-09T03:42:38.136Z,16.17
2019-05-09T03:45:31.768Z,14.83
2019-05-09T03:48:40.740Z,18.63
2019-05-09T03:51:44.440Z,15.63
2019-05-09T03:54:48.128Z,16.37
2019-05-09T03:58:01.014Z,21.80
2019-05-09T04:01:04.767Z,13.87
2019-05-09T04:04:08.893Z,16.63
2019-05-09T04:07:12.644Z,37.77
2019-05-09T04:10:18.055Z,17.57
2019-05-09T04:13:25.479Z,16.70
2019-05-09T04:16:29.167Z,18.73
2019-05-09T04:19:32.861Z,15.47
2019-05-09T04:22:38.514Z,17.20
2019-05-09T04:25:48.259Z,16.40
2019-05-09T04:28:51.957Z,19.00
2019-05-09T04:31:57.532Z,18.20
2019-05-09T04:35:01.415Z,12.43
2019-05-09T04:38:07.345Z,16.47
2019-05-09T04:41:10.545Z,14.53
2019-05-09T04:44:21.763Z,14.37
2019-05-09T04:47:25.251Z,25.23
2019-05-09T04:50:28.954Z,25.50
2019-05-09T04:53:32.823Z,29.40
2019-05-09T04:56:39.189Z,23.90
2019-05-09T04:59:42.901Z,18.63
2019-05-09T05:02:49.596Z,20.07
2019-05-09T05:05:53.306Z,22.93
2019-05-09T05:08:58.593Z,21.53
2019-05-09T05:12:02.383Z,18.87
2019-05-09T05:15:08.015Z,20.90
2019-05-09T05:18:11.790Z,18.57
2019-05-09T05:21:15.492Z,18.73
2019-05-09T05:24:27.788Z,25.93
2019-05-09T05:27:31.840Z,25.43
2019-05-09T05:30:37.351Z,24.83
2019-05-09T05:34:08.233Z,23.50
2019-05-09T05:37:11.566Z,28.37
2019-05-09T05:40:17.678Z,30.83
2019-05-09T05:43:21.239Z,31.37
2019-05-09T05:46:31.405Z,24.77
2019-05-09T05:49:35.182Z,32.17
2019-05-09T05:52:38.877Z,26.67
2019-05-09T05:55:42.620Z,43.20
2019-05-09T05:58:48.794Z,37.33
2019-05-09T06:01:51.763Z,46.73
2019-05-09T06:04:57.760Z,34.40
2019-05-09T06:08:01.109Z,28.00
2019-05-09T06:11:08.550Z,39.83
2019-05-09T06:14:11.899Z,45.47
2019-05-09T06:17:17.943Z,39.10
2019-05-09T06:20:21.449Z,34.23
2019-05-09T06:23:25.149Z,38.07
2019-05-09T06:26:29.396Z,40.07
2019-05-09T06:29:33.437Z,43.87
2019-05-09T06:32:38.445Z,35.80
2019-05-09T06:35:42.646Z,33.60
2019-05-09T06:38:48.592Z,33.97
2019-05-09T06:41:51.758Z,40.23
2019-05-09T06:45:13.425Z,46.27
2019-05-09T06:48:18.107Z,46.50
2019-05-09T06:51:22.175Z,48.00
2019-05-09T06:54:27.871Z,46.27
2019-05-09T06:57:31.375Z,33.57
2019-05-09T07:00:50.371Z,38.73
2019-05-09T07:03:58.000Z,48.17
2019-05-09T07:07:11.750Z,52.20
2019-05-09T07:10:17.693Z,36.10
2019-05-09T07:13:20.961Z,38.23
2019-05-09T07:16:24.650Z,36.47
2019-05-09T07:19:28.349Z,44.23
2019-05-09T07:22:42.194Z,34.30
2019-05-09T07:26:07.869Z,28.13
2019-05-09T07:29:11.573Z,41.30
2019-05-09T07:32:27.709Z,34.17
2019-05-09T07:35:32.202Z,36.93
2019-05-09T07:38:38.311Z,34.37
2019-05-09T07:41:41.357Z,38.90
2019-05-09T07:44:49.033Z,29.70
2019-05-09T07:47:50.520Z,35.43
2019-05-09T07:50:54.922Z,33.13
2019-05-09T07:53:59.131Z,33.53
2019-05-09T07:57:02.912Z,27.80
2019-05-09T08:00:07.873Z,27.67
2019-05-09T08:03:13.193Z,27.57
2019-05-09T08:06:18.409Z,30.83
2019-05-09T08:09:22.320Z,36.60
2019-05-09T08:12:28.307Z,39.00
2019-05-09T08:15:31.464Z,40.93
2019-05-09T08:18:37.454Z,35.83
2019-05-09T08:21:41.010Z,32.20
2019-05-09T08:24:44.742Z,28.33
2019-05-09T08:27:48.460Z,23.77
2019-05-09T08:30:52.295Z,25.60
2019-05-09T08:33:56.007Z,29.43
2019-05-09T08:36:59.719Z,24.50
2019-05-09T08:40:03.743Z,22.47
2019-05-09T08:43:07.787Z,18.70
2019-05-09T08:46:12.543Z,19.87
2019-05-09T08:49:18.260Z,19.67
2019-05-09T08:52:22.047Z,18.30
2019-05-09T08:55:27.777Z,17.07
2019-05-09T08:58:31.312Z,18.53
2019-05-09T09:02:01.646Z,22.50
2019-05-09T09:04:40.611Z,21.33
2019-05-09T09:07:44.340Z,18.03
2019-05-09T09:10:48.963Z,22.77
2019-05-09T09:13:52.807Z,25.00
2019-05-09T09:16:57.595Z,16.70
2019-05-09T09:20:01.819Z,15.90
2019-05-09T09:23:05.588Z,17.70
2019-05-09T09:26:09.375Z,15.30
2019-05-09T09:29:13.106Z,15.20
2019-05-09T09:32:18.967Z,18.07
2019-05-09T09:35:22.658Z,14.00
2019-05-09T09:38:28.133Z,14.30
2019-05-09T09:41:31.899Z,13.70
2019-05-09T09:44:35.631Z,12.97
2019-05-09T09:47:40.429Z,13.93
2019-05-09T09:50:44.410Z,13.63
2019-05-09T09:53:48.955Z,11.70
2019-05-09T09:56:53.891Z,11.10
2019-05-09T10:00:00.847Z,10.23
2019-05-09T10:03:04.542Z,9.70
2019-05-09T10:06:08.531Z,12.37
2019-05-09T10:09:12.633Z,14.23
2019-05-09T10:12:18.219Z,11.20
2019-05-09T10:15:38.294Z,8.67
2019-05-09T10:18:59.204Z,8.43
2019-05-09T10:22:03.418Z,4.80
2019-05-09T10:25:07.903Z,8.07
2019-05-09T10:28:11.651Z,9.50
2019-05-09T10:31:15.337Z,7.70
2019-05-09T10:34:19.042Z,4.70
2019-05-09T10:37:22.829Z,7.80
2019-05-09T10:40:28.135Z,3.93
2019-05-09T10:43:41.701Z,4.83
2019-05-09T10:46:57.503Z,4.27
2019-05-09T10:49:58.674Z,6.13
2019-05-09T10:53:02.395Z,5.90
2019-05-09T10:56:08.717Z,6.73
2019-05-09T10:59:11.717Z,7.23
2019-05-09T11:02:17.531Z,5.17
2019-05-09T11:05:20.945Z,9.40
2019-05-09T11:08:24.645Z,7.73
2019-05-09T11:11:28.959Z,7.73
2019-05-09T11:14:37.305Z,7.17
2019-05-09T11:17:38.988Z,5.80
2019-05-09T11:20:42.782Z,5.97
2019-05-09T11:23:48.833Z,7.63
2019-05-09T11:26:51.891Z,9.57
2019-05-09T11:29:57.851Z,7.78
2019-05-09T11:33:01.311Z,4.00
2019-05-09T11:36:05.105Z,4.40
2019-05-09T11:39:10.651Z,6.80
2019-05-09T11:42:14.961Z,4.93
2019-05-09T11:45:18.737Z,6.53
2019-05-09T11:48:22.434Z,6.37
2019-05-09T11:51:29.053Z,6.80
2019-05-09T11:54:31.558Z,4.60
2019-05-09T11:57:35.253Z,9.33
2019-05-09T12:00:38.978Z,4.27
2019-05-09T12:03:42.725Z,3.67
2019-05-09T12:06:46.427Z,8.40
2019-05-09T12:09:50.704Z,3.57
2019-05-09T12:12:54.391Z,3.90
2019-05-09T12:15:58.523Z,2.90
2019-05-09T12:19:02.256Z,4.17
2019-05-09T12:22:08.757Z,5.87
2019-05-09T12:25:11.814Z,5.13
2019-05-09T12:28:15.505Z,5.07
2019-05-09T12:31:19.203Z,3.83
2019-05-09T12:34:22.966Z,4.93
2019-05-09T12:37:28.163Z,4.47
2019-05-09T12:40:32.121Z,5.13
2019-05-09T12:43:38.203Z,8.03
2019-05-09T12:46:41.255Z,10.03
2019-05-09T12:49:44.976Z,4.50
2019-05-09T12:52:48.907Z,2.90
2019-05-09T12:55:59.966Z,2.53
2019-05-09T12:59:03.752Z,3.53
2019-05-09T13:02:07.739Z,3.47
2019-05-09T13:05:11.600Z,5.40
2019-05-09T13:08:17.293Z,3.73
2019-05-09T13:11:20.811Z,3.50
2019-05-09T13:14:24.498Z,3.93
2019-05-09T13:17:31.735Z,3.90
2019-05-09T13:20:38.097Z,4.77
2019-05-09T13:23:40.892Z,4.83
2019-05-09T13:26:47.986Z,3.87
2019-05-09T13:29:51.945Z,2.37
2019-05-09T13:32:55.700Z,3.87
2019-05-09T13:35:59.406Z,5.17
2019-05-09T13:39:05.362Z,4.53
2019-05-09T13:42:09.765Z,3.73
2019-05-09T13:45:13.949Z,3.53
2019-05-09T13:48:28.056Z,3.20
2019-05-09T13:51:23.107Z,3.53
2019-05-09T13:54:28.589Z,4.07
2019-05-09T13:57:32.680Z,2.83
2019-05-09T14:00:38.891Z,4.17
2019-05-09T14:03:41.838Z,6.57
2019-05-09T14:06:45.629Z,4.07
2019-05-09T14:09:49.356Z,5.47
2019-05-09T14:13:05.652Z,2.87
2019-05-09T14:15:58.446Z,6.10
2019-05-09T14:19:24.591Z,3.10
2019-05-09T14:22:08.312Z,4.93
2019-05-09T14:25:12.151Z,2.83
2019-05-09T14:28:15.870Z,5.23
2019-05-09T14:31:19.559Z,3.57
2019-05-09T14:34:23.317Z,5.67
2019-05-09T14:37:28.391Z,4.00
2019-05-09T14:40:32.126Z,3.33
2019-05-09T14:43:39.541Z,5.00
2019-05-09T14:46:43.600Z,3.07
2019-05-09T14:49:49.961Z,3.00
2019-05-09T14:52:52.758Z,14.27
2019-05-09T14:55:58.833Z,36.53
2019-05-09T14:59:01.938Z,7.40
2019-05-09T15:02:08.849Z,24.53
2019-05-09T15:05:11.775Z,5.43
2019-05-09T15:08:17.940Z,3.20
2019-05-09T15:11:20.961Z,2.10
2019-05-09T15:14:25.456Z,4.50
2019-05-09T15:17:29.196Z,2.83
2019-05-09T15:20:32.976Z,3.13
2019-05-09T15:23:39.094Z,7.77
2019-05-09T15:26:42.390Z,5.83
2019-05-09T15:29:48.581Z,3.73
2019-05-09T15:32:52.253Z,3.53
2019-05-09T15:35:58.732Z,4.07
2019-05-09T15:39:02.224Z,3.23
2019-05-09T15:42:07.423Z,3.80
2019-05-09T15:45:11.474Z,7.70
2019-05-09T15:48:15.192Z,3.70
2019-05-09T15:51:18.899Z,6.23
2019-05-09T15:54:23.012Z,3.97
2019-05-09T15:57:27.541Z,8.53
2019-05-09T16:00:31.446Z,4.37
2019-05-09T16:03:35.220Z,3.37
2019-05-09T16:06:39.314Z,5.13
2019-05-09T16:09:43.093Z,2.60
2019-05-09T16:12:48.626Z,2.93
2019-05-09T16:15:52.255Z,6.43
2019-05-09T16:18:58.085Z,4.60
2019-05-09T16:22:02.147Z,6.27
2019-05-09T16:25:06.214Z,4.77
2019-05-09T16:28:09.907Z,5.87
2019-05-09T16:31:13.806Z,4.77
2019-05-09T16:34:17.912Z,3.13
2019-05-09T16:37:21.832Z,6.60
2019-05-09T16:40:27.819Z,10.73
2019-05-09T16:43:30.999Z,6.60
2019-05-09T16:46:37.330Z,4.70
2019-05-09T16:49:40.736Z,4.03
2019-05-09T16:52:44.476Z,4.83
2019-05-09T16:55:48.174Z,3.50
2019-05-09T16:58:51.923Z,9.37
2019-05-09T17:01:57.832Z,4.50
2019-05-09T17:05:01.933Z,3.53
2019-05-09T17:08:08.018Z,5.50
2019-05-09T17:11:11.488Z,4.77
2019-05-09T17:14:15.472Z,1.80
2019-05-09T17:17:19.557Z,4.23
2019-05-09T17:20:28.454Z,2.90
2019-05-09T17:23:32.311Z,2.40
2019-05-09T17:26:37.890Z,3.53
2019-05-09T17:29:41.447Z,4.93
2019-05-09T17:32:47.468Z,3.23
2019-05-09T17:35:51.267Z,2.23
2019-05-09T17:38:54.989Z,1.80
2019-05-09T17:41:58.780Z,2.20
2019-05-09T17:45:03.505Z,2.60
2019-05-09T17:48:08.569Z,4.37
2019-05-09T17:51:12.409Z,2.53
2019-05-09T17:54:18.244Z,2.93
2019-05-09T17:57:21.595Z,5.03
2019-05-09T18:00:27.898Z,1.93
2019-05-09T18:03:31.138Z,3.37
2019-05-09T18:06:34.869Z,3.47
2019-05-09T18:09:38.905Z,2.13
2019-05-09T18:12:42.605Z,2.77
2019-05-09T18:15:48.327Z,3.70
2019-05-09T18:18:54.641Z,4.07
2019-05-09T18:21:58.439Z,3.67
2019-05-09T18:25:02.579Z,3.27
2019-05-09T18:28:06.486Z,6.23
2019-05-09T18:31:10.505Z,2.53
2019-05-09T18:34:14.209Z,2.80
2019-05-09T18:37:17.923Z,4.53
2019-05-09T18:40:22.918Z,5.37
2019-05-09T18:43:27.444Z,3.83
2019-05-09T18:46:31.439Z,3.87
2019-05-09T18:49:35.222Z,11.37
2019-05-09T18:52:39.188Z,2.47
2019-05-09T18:55:42.978Z,4.00
2019-05-09T18:58:46.724Z,2.83
2019-05-09T19:01:50.420Z,2.93
2019-05-09T19:04:54.144Z,2.67
2019-05-09T19:07:58.046Z,3.20
2019-05-09T19:11:01.820Z,3.27
2019-05-09T19:14:06.659Z,4.20
2019-05-09T19:17:29.411Z,3.77
2019-05-09T19:20:55.838Z,2.47
2019-05-09T19:23:59.559Z,4.43
2019-05-09T19:27:03.265Z,1.90
2019-05-09T19:30:07.425Z,4.03
2019-05-09T19:33:11.210Z,3.87
2019-05-09T19:36:14.928Z,4.43
2019-05-09T19:39:18.986Z,4.37
2019-05-09T19:42:22.702Z,4.30
2019-05-09T19:45:26.493Z,3.90
2019-05-09T19:48:30.218Z,4.13
2019-05-09T19:51:34.193Z,2.50
2019-05-09T19:54:37.901Z,2.13
2019-05-09T19:57:41.633Z,4.53
2019-05-09T20:00:45.688Z,5.77
2019-05-09T20:03:49.474Z,5.17
2019-05-09T20:06:53.185Z,4.87
2019-05-09T20:10:03.411Z,3.63
2019-05-09T20:13:13.137Z,2.97
2019-05-09T20:16:16.821Z,6.67
2019-05-09T20:19:20.542Z,5.40
2019-05-09T20:22:24.266Z,3.43
2019-05-09T20:25:28.000Z,1.80
2019-05-09T20:28:31.712Z,4.73
2019-05-09T20:31:35.854Z,8.77
2019-05-09T20:34:39.608Z,4.63
2019-05-09T20:37:43.494Z,5.53
2019-05-09T20:40:47.377Z,5.50
2019-05-09T20:43:51.269Z,3.60
2019-05-09T20:46:55.174Z,4.20
2019-05-09T20:49:59.057Z,4.83
2019-05-09T20:53:09.596Z,4.90
2019-05-09T20:56:08.903Z,3.80
2019-05-09T20:59:12.805Z,5.40
2019-05-09T21:02:16.679Z,3.57
2019-05-09T21:05:20.573Z,3.27
2019-05-09T21:08:24.538Z,2.67
2019-05-09T21:11:28.412Z,3.40
2019-05-09T21:14:32.327Z,4.77
2019-05-09T21:17:36.259Z,5.10
2019-05-09T21:20:40.497Z,3.30
2019-05-09T21:23:44.458Z,4.13
2019-05-09T21:26:48.341Z,4.27
2019-05-09T21:29:52.306Z,2.77
2019-05-09T21:32:56.543Z,6.90
2019-05-09T21:36:00.841Z,3.00
2019-05-09T21:39:06.238Z,6.07
2019-05-09T21:42:09.999Z,4.23
2019-05-09T21:45:14.011Z,5.13
2019-05-09T21:48:17.714Z,3.43
2019-05-09T21:51:21.408Z,4.50
2019-05-09T21:54:25.394Z,5.47
2019-05-09T21:57:29.116Z,4.80
2019-05-09T22:00:36.628Z,5.33
2019-05-09T22:03:40.465Z,4.70
2019-05-09T22:06:44.189Z,5.67
2019-05-09T22:09:48.193Z,4.73
2019-05-09T22:12:51.965Z,4.77
2019-05-09T22:15:55.667Z,5.07
2019-05-09T22:18:59.368Z,2.50
2019-05-09T22:22:03.096Z,3.47
2019-05-09T22:25:07.606Z,5.97
2019-05-09T22:28:11.303Z,5.13
2019-05-09T22:31:14.999Z,7.77
2019-05-09T22:34:18.693Z,5.20
2019-05-09T22:37:22.412Z,5.30
2019-05-09T22:40:26.118Z,4.67
2019-05-09T22:43:30.169Z,6.47
2019-05-09T22:46:33.876Z,3.90
2019-05-09T22:49:37.572Z,4.50
2019-05-09T22:52:41.290Z,5.23
2019-05-09T22:55:45.027Z,3.73
2019-05-09T22:58:48.759Z,5.20
2019-05-09T23:01:52.469Z,4.20
2019-05-09T23:04:56.170Z,5.20
2019-05-09T23:07:59.952Z,4.00
2019-05-09T23:11:03.798Z,4.53
2019-05-09T23:14:07.566Z,3.13
2019-05-09T23:17:11.576Z,6.27
2019-05-09T23:20:36.107Z,3.37
2019-05-09T23:23:42.338Z,3.20
2019-05-09T23:26:46.071Z,6.57
2019-05-09T23:29:49.779Z,5.07
2019-05-09T23:32:53.579Z,5.60
2019-05-09T23:35:57.306Z,5.87
2019-05-09T23:39:26.329Z,5.27
2019-05-09T23:42:30.174Z,3.67
2019-05-09T23:45:33.895Z,4.13
2019-05-09T23:48:38.007Z,4.70
2019-05-09T23:51:45.727Z,4.60
2019-05-09T23:55:07.435Z,7.17
2019-05-09T23:58:29.057Z,4.70
